createdAt,value
2023-03-27T00:03:24.527Z,94316.00
2023-03-27T00:07:27.357Z,94307.00
2023-03-27T00:11:30.110Z,94300.00
2023-03-27T00:15:36.003Z,94304.00
2023-03-27T00:19:38.793Z,94298.00
2023-03-27T00:23:42.364Z,94308.00
2023-03-27T00:27:45.671Z,94300.00
2023-03-27T00:31:49.848Z,94304.00
2023-03-27T00:35:53.504Z,94311.00
2023-03-27T00:39:56.559Z,94320.00
2023-03-27T00:43:59.490Z,94319.00
2023-03-27T00:48:08.795Z,94315.00
2023-03-27T00:52:13.599Z,94317.00
2023-03-27T00:56:16.851Z,94333.00
2023-03-27T01:00:20.141Z,94338.00
2023-03-27T01:04:24.660Z,94319.00
2023-03-27T01:08:31.890Z,94325.00
2023-03-27T01:12:42.942Z,94326.00
2023-03-27T01:16:56.479Z,94328.00
2023-03-27T01:21:32.609Z,94328.00
2023-03-27T01:25:54.859Z,94325.00
2023-03-27T01:30:10.210Z,94322.00
2023-03-27T01:34:29.967Z,94321.00
2023-03-27T01:39:08.817Z,94319.00
2023-03-27T01:43:15.402Z,94318.00
2023-03-27T01:47:27.410Z,94330.00
2023-03-27T01:51:36.431Z,94319.00
2023-03-27T01:55:44.274Z,94333.00
2023-03-27T01:59:55.640Z,94327.00
2023-03-27T02:04:02.428Z,94333.00
2023-03-27T02:08:11.156Z,94325.00
2023-03-27T02:12:19.668Z,94333.00
2023-03-27T02:16:33.684Z,94340.00
2023-03-27T02:20:38.926Z,94341.00
2023-03-27T02:24:43.057Z,94342.00
2023-03-27T02:28:58.326Z,94344.00
2023-03-27T02:33:14.720Z,94359.00
2023-03-27T02:37:32.038Z,94355.00
2023-03-27T02:42:02.574Z,94352.00
2023-03-27T02:46:24.911Z,94350.00
2023-03-27T02:50:31.376Z,94373.00
2023-03-27T02:54:46.400Z,94378.00
2023-03-27T02:58:53.190Z,94388.00
2023-03-27T03:03:17.874Z,94384.00
2023-03-27T03:07:26.456Z,94375.00
2023-03-27T03:11:30.044Z,94385.00
2023-03-27T03:15:32.780Z,94394.00
2023-03-27T03:19:37.070Z,94386.00
2023-03-27T03:23:40.141Z,94399.00
2023-03-27T03:27:44.229Z,94409.00
2023-03-27T03:31:49.651Z,94405.00
2023-03-27T03:35:53.966Z,94411.00
2023-03-27T03:40:11.591Z,94411.00
2023-03-27T03:44:16.912Z,94420.00
2023-03-27T03:48:20.550Z,94425.00
2023-03-27T03:52:24.665Z,94439.00
2023-03-27T03:56:29.381Z,94442.00
2023-03-27T04:00:34.514Z,94459.00
2023-03-27T04:04:37.407Z,94460.00
2023-03-27T04:08:45.842Z,94450.00
2023-03-27T04:13:07.989Z,94462.00
2023-03-27T04:17:23.208Z,94469.00
2023-03-27T04:21:26.748Z,94474.00
2023-03-27T04:25:32.146Z,94491.00
2023-03-27T04:29:36.252Z,94502.00
2023-03-27T04:33:46.176Z,94512.00
2023-03-27T04:38:02.622Z,94525.00
2023-03-27T04:42:15.932Z,94536.00
2023-03-27T04:46:20.051Z,94559.00
2023-03-27T04:50:28.954Z,94565.00
2023-03-27T04:54:32.673Z,94579.00
2023-03-27T04:58:37.762Z,94597.00
2023-03-27T05:02:47.710Z,94606.00
2023-03-27T05:06:57.118Z,94612.00
2023-03-27T05:10:59.995Z,94629.00
2023-03-27T05:15:09.226Z,94637.00
2023-03-27T05:19:15.995Z,94658.00
2023-03-27T05:23:25.586Z,94666.00
2023-03-27T05:27:28.633Z,94669.00
2023-03-27T05:31:34.212Z,94689.00
2023-03-27T05:35:58.544Z,94713.00
2023-03-27T05:40:02.264Z,94722.00
2023-03-27T05:44:07.601Z,94733.00
2023-03-27T05:48:16.281Z,94750.00
2023-03-27T05:52:20.568Z,94760.00
2023-03-27T05:56:23.925Z,94767.00
2023-03-27T06:00:34.299Z,94778.00
2023-03-27T06:04:38.885Z,94799.00
2023-03-27T06:08:46.148Z,94809.00
2023-03-27T06:12:49.328Z,94817.00
2023-03-27T06:17:07.570Z,94829.00
2023-03-27T06:21:26.537Z,94852.00
2023-03-27T06:25:36.833Z,94864.00
2023-03-27T06:29:40.435Z,94887.00
2023-03-27T06:33:43.650Z,94885.00
2023-03-27T06:38:03.691Z,94890.00
2023-03-27T06:42:06.636Z,94907.00
2023-03-27T06:46:11.555Z,94926.00
2023-03-27T06:50:35.458Z,94931.00
2023-03-27T06:54:39.657Z,94956.00
2023-03-27T06:58:42.800Z,94963.00
2023-03-27T07:02:46.246Z,94981.00
2023-03-27T07:07:07.571Z,94992.00
2023-03-27T07:11:15.813Z,94992.00
2023-03-27T07:15:35.012Z,95006.00
2023-03-27T07:19:38.011Z,95021.00
2023-03-27T07:23:46.646Z,95038.00
2023-03-27T07:27:59.088Z,95058.00
2023-03-27T07:32:06.270Z,95065.00
2023-03-27T07:36:18.156Z,95070.00
2023-03-27T07:40:39.449Z,95084.00
2023-03-27T07:45:05.935Z,95091.00
2023-03-27T07:49:09.423Z,95108.00
2023-03-27T07:53:33.655Z,95114.00
2023-03-27T07:57:58.024Z,95121.00
2023-03-27T08:02:05.837Z,95133.00
2023-03-27T08:06:13.007Z,95136.00
2023-03-27T08:10:16.948Z,95153.00
2023-03-27T08:14:33.052Z,95163.00
2023-03-27T08:18:47.372Z,95172.00
2023-03-27T08:22:51.604Z,95191.00
2023-03-27T08:27:03.453Z,95209.00
2023-03-27T08:31:11.493Z,95212.00
2023-03-27T08:35:15.984Z,95222.00
2023-03-27T08:39:18.904Z,95235.00
2023-03-27T08:43:37.237Z,95245.00
2023-03-27T08:47:45.812Z,95251.00
2023-03-27T08:51:59.082Z,95252.00
2023-03-27T08:56:03.234Z,95269.00
2023-03-27T09:00:19.950Z,95285.00
2023-03-27T09:04:36.393Z,95278.00
2023-03-27T09:08:50.633Z,95292.00
2023-03-27T09:13:04.216Z,95290.00
2023-03-27T09:17:17.369Z,95293.00
2023-03-27T09:21:27.660Z,95310.00
2023-03-27T09:25:37.855Z,95316.00
2023-03-27T09:30:05.521Z,95318.00
2023-03-27T09:34:33.374Z,95329.00
2023-03-27T09:38:42.055Z,95345.00
2023-03-27T09:42:55.240Z,95343.00
2023-03-27T09:47:02.919Z,95354.00
2023-03-27T09:51:37.444Z,95363.00
2023-03-27T09:55:54.425Z,95369.00
2023-03-27T10:00:08.805Z,95378.00
2023-03-27T10:04:19.781Z,95375.00
2023-03-27T10:08:40.618Z,95402.00
2023-03-27T10:12:55.786Z,95405.00
2023-03-27T10:17:13.798Z,95411.00
2023-03-27T10:21:26.119Z,95420.00
2023-03-27T10:25:33.189Z,95418.00
2023-03-27T10:29:57.537Z,95433.00
2023-03-27T10:34:04.764Z,95438.00
2023-03-27T10:38:27.727Z,95440.00
2023-03-27T10:42:45.424Z,95454.00
2023-03-27T10:46:48.472Z,95459.00
2023-03-27T10:50:57.561Z,95467.00
2023-03-27T10:55:44.854Z,95467.00
2023-03-27T10:59:54.246Z,95459.00
2023-03-27T11:04:24.733Z,95479.00
2023-03-27T11:08:51.185Z,95498.00
2023-03-27T11:13:03.633Z,95493.00
2023-03-27T11:17:09.413Z,95490.00
2023-03-27T11:21:41.184Z,95494.00
2023-03-27T11:25:48.309Z,95501.00
2023-03-27T11:30:04.627Z,95510.00
2023-03-27T11:34:29.519Z,95504.00
2023-03-27T11:39:00.783Z,95520.00
2023-03-27T11:43:05.282Z,95521.00
2023-03-27T11:47:27.794Z,95535.00
2023-03-27T11:51:49.061Z,95523.00
2023-03-27T11:56:04.188Z,95539.00
2023-03-27T12:00:21.999Z,95530.00
2023-03-27T12:04:42.563Z,95530.00
2023-03-27T12:09:28.869Z,95543.00
2023-03-27T12:14:28.271Z,95534.00
2023-03-27T12:19:03.757Z,95562.00
2023-03-27T12:23:28.588Z,95563.00
2023-03-27T12:28:22.693Z,95553.00
2023-03-27T12:33:08.805Z,95547.00
2023-03-27T12:37:14.737Z,95557.00
2023-03-27T12:41:24.529Z,95560.00
2023-03-27T12:45:44.248Z,95563.00
2023-03-27T12:49:58.924Z,95567.00
2023-03-27T12:54:26.189Z,95558.00
2023-03-27T12:58:34.516Z,95563.00
2023-03-27T13:03:24.056Z,95567.00
2023-03-27T13:07:34.127Z,95582.00
2023-03-27T13:12:10.352Z,95569.00
2023-03-27T13:16:52.068Z,95576.00
2023-03-27T13:21:10.550Z,95576.00
2023-03-27T13:25:26.241Z,95576.00
2023-03-27T13:29:35.833Z,95585.00
2023-03-27T13:33:48.654Z,95591.00
2023-03-27T13:38:08.103Z,95601.00
2023-03-27T13:42:33.941Z,95601.00
2023-03-27T13:46:39.363Z,95596.00
2023-03-27T13:51:06.784Z,95603.00
2023-03-27T13:55:49.951Z,95605.00
2023-03-27T14:00:54.465Z,95626.00
2023-03-27T14:05:16.199Z,95616.00
2023-03-27T14:09:35.344Z,95630.00
2023-03-27T14:13:59.725Z,95628.00
2023-03-27T14:18:46.443Z,95635.00
2023-03-27T14:22:56.796Z,95657.00
2023-03-27T14:27:07.060Z,95669.00
2023-03-27T14:31:14.820Z,95693.00
2023-03-27T14:35:35.986Z,95677.00
2023-03-27T14:39:53.824Z,95681.00
2023-03-27T14:44:03.576Z,95692.00
2023-03-27T14:48:15.088Z,95695.00
2023-03-27T14:52:26.724Z,95696.00
2023-03-27T14:57:01.898Z,95703.00
2023-03-27T15:01:17.166Z,95729.00
2023-03-27T15:05:25.604Z,95740.00
2023-03-27T15:09:37.332Z,95714.00
2023-03-27T15:14:04.230Z,95692.00
2023-03-27T15:18:15.232Z,95690.00
2023-03-27T15:22:24.441Z,95694.00
2023-03-27T15:26:31.443Z,95711.00
2023-03-27T15:30:40.428Z,95705.00
2023-03-27T15:34:47.440Z,95707.00
2023-03-27T15:38:51.233Z,95708.00
2023-03-27T15:42:55.127Z,95702.00
2023-03-27T15:47:01.571Z,95710.00
2023-03-27T15:51:05.535Z,95720.00
2023-03-27T15:55:10.807Z,95722.00
2023-03-27T15:59:15.613Z,95708.00
2023-03-27T16:03:22.309Z,95715.00
2023-03-27T16:07:30.006Z,95708.00
2023-03-27T16:11:51.542Z,95723.00
2023-03-27T16:15:59.241Z,95730.00
2023-03-27T16:20:24.909Z,95739.00
2023-03-27T16:24:27.665Z,95730.00
2023-03-27T16:28:31.226Z,95728.00
2023-03-27T16:32:34.127Z,95750.00
2023-03-27T16:36:38.762Z,95776.00
2023-03-27T16:40:41.861Z,95792.00
2023-03-27T16:44:45.536Z,95795.00
2023-03-27T16:48:48.994Z,95806.00
2023-03-27T16:52:53.208Z,95798.00
2023-03-27T16:56:56.198Z,95792.00
2023-03-27T17:00:59.069Z,95800.00
2023-03-27T17:05:02.025Z,95799.00
2023-03-27T17:09:06.407Z,95799.00
2023-03-27T17:13:09.240Z,95794.00
2023-03-27T17:17:12.110Z,95796.00
2023-03-27T17:21:15.273Z,95806.00
2023-03-27T17:25:19.661Z,95819.00
2023-03-27T17:29:22.577Z,95821.00
2023-03-27T17:33:27.761Z,95817.00
2023-03-27T17:37:30.658Z,95827.00
2023-03-27T17:41:34.824Z,95839.00
2023-03-27T17:45:41.666Z,95840.00
2023-03-27T17:49:45.114Z,95841.00
2023-03-27T17:53:47.932Z,95844.00
2023-03-27T17:58:05.819Z,95844.00
2023-03-27T18:02:17.261Z,95844.00
2023-03-27T18:06:20.172Z,95848.00
2023-03-27T18:10:22.974Z,95848.00
2023-03-27T18:14:27.159Z,95846.00
2023-03-27T18:18:29.931Z,95863.00
2023-03-27T18:22:32.692Z,95862.00
2023-03-27T18:26:35.502Z,95872.00
2023-03-27T18:30:39.739Z,95866.00
2023-03-27T18:34:42.531Z,95874.00
2023-03-27T18:38:47.728Z,95887.00
2023-03-27T18:42:52.290Z,95893.00
2023-03-27T18:46:56.569Z,95902.00
2023-03-27T18:51:01.109Z,95911.00
2023-03-27T18:55:03.949Z,95922.00
2023-03-27T18:59:08.024Z,95917.00
2023-03-27T19:03:15.577Z,95903.00
2023-03-27T19:07:18.516Z,95904.00
2023-03-27T19:11:22.583Z,95902.00
2023-03-27T19:16:14.937Z,95910.00
2023-03-27T19:20:40.355Z,95913.00
2023-03-27T19:25:00.533Z,95918.00
2023-03-27T19:29:03.334Z,95912.00
2023-03-27T19:33:06.198Z,95925.00
2023-03-27T19:37:10.805Z,95912.00
2023-03-27T19:41:13.624Z,95920.00
2023-03-27T19:45:16.795Z,95930.00
2023-03-27T19:49:22.545Z,95928.00
2023-03-27T19:53:46.608Z,95929.00
2023-03-27T19:57:49.366Z,95939.00
2023-03-27T20:01:52.934Z,95943.00
2023-03-27T20:06:06.828Z,95930.00
2023-03-27T20:10:12.351Z,95938.00
2023-03-27T20:14:15.397Z,95936.00
2023-03-27T20:18:19.898Z,95944.00
2023-03-27T20:22:22.784Z,95933.00
2023-03-27T20:26:28.164Z,95925.00
2023-03-27T20:30:40.060Z,95920.00
2023-03-27T20:34:46.240Z,95919.00
2023-03-27T20:38:49.828Z,95916.00
2023-03-27T20:43:03.144Z,95917.00
2023-03-27T20:47:11.006Z,95920.00
2023-03-27T20:51:15.975Z,95915.00
2023-03-27T20:55:30.473Z,95927.00
2023-03-27T20:59:37.744Z,95920.00
2023-03-27T21:03:46.277Z,95916.00
2023-03-27T21:07:51.275Z,95917.00
2023-03-27T21:11:55.102Z,95923.00
2023-03-27T21:16:00.214Z,95921.00
2023-03-27T21:20:05.912Z,95936.00
2023-03-27T21:24:09.584Z,95935.00
2023-03-27T21:28:12.420Z,95938.00
2023-03-27T21:32:16.638Z,95936.00
2023-03-27T21:36:19.505Z,95940.00
2023-03-27T21:40:22.391Z,95944.00
2023-03-27T21:44:25.290Z,95946.00
2023-03-27T21:48:29.489Z,95952.00
2023-03-27T21:52:32.315Z,95947.00
2023-03-27T21:56:35.221Z,95958.00
2023-03-27T22:00:38.128Z,95965.00
2023-03-27T22:04:42.332Z,95975.00
2023-03-27T22:08:45.216Z,95971.00
2023-03-27T22:12:48.002Z,95977.00
2023-03-27T22:16:50.897Z,95990.00
2023-03-27T22:20:55.236Z,95978.00
2023-03-27T22:24:58.072Z,95987.00
2023-03-27T22:29:01.079Z,95987.00
2023-03-27T22:33:03.901Z,95994.00
2023-03-27T22:37:08.076Z,95994.00
2023-03-27T22:41:13.417Z,95998.00
2023-03-27T22:45:16.274Z,96014.00
2023-03-27T22:49:19.083Z,96021.00
2023-03-27T22:53:23.835Z,96010.00
2023-03-27T22:57:26.620Z,96028.00
2023-03-27T23:01:29.431Z,96030.00
2023-03-27T23:05:32.259Z,96025.00
2023-03-27T23:09:36.670Z,96031.00
2023-03-27T23:13:39.580Z,96028.00
2023-03-27T23:17:42.423Z,96031.00
2023-03-27T23:21:45.219Z,96024.00
2023-03-27T23:25:49.475Z,96039.00
2023-03-27T23:29:52.241Z,96038.00
2023-03-27T23:33:55.012Z,96037.00
2023-03-27T23:37:57.864Z,96044.00
2023-03-27T23:42:01.981Z,96052.00
2023-03-27T23:46:08.707Z,96061.00
2023-03-27T23:50:12.005Z,96068.00
2023-03-27T23:54:14.823Z,96063.00
2023-03-27T23:58:19.398Z,96070.00
